createdAt,value
2017-05-02T00:02:13.072Z,87.60
2017-05-02T00:04:41.957Z,87.60
2017-05-02T00:07:10.844Z,87.50
2017-05-02T00:09:39.861Z,87.20
2017-05-02T00:12:08.753Z,86.90
2017-05-02T00:14:37.737Z,86.90
2017-05-02T00:17:06.673Z,87.20
2017-05-02T00:19:36.305Z,87.10
2017-05-02T00:22:05.201Z,86.90
2017-05-02T00:24:34.265Z,86.70
2017-05-02T00:27:03.901Z,87.10
2017-05-02T00:29:32.784Z,87.20
2017-05-02T00:32:02.017Z,88.30
2017-05-02T00:34:30.901Z,87.30
2017-05-02T00:36:59.797Z,87.90
2017-05-02T00:39:28.729Z,87.90
2017-05-02T00:41:58.362Z,88.30
2017-05-02T00:44:27.278Z,88.40
2017-05-02T00:46:56.476Z,88.30
2017-05-02T00:49:25.370Z,87.90
2017-05-02T00:51:54.256Z,88.30
2017-05-02T00:54:23.270Z,88.40
2017-05-02T00:56:52.153Z,88.10
2017-05-02T00:59:21.046Z,88.60
2017-05-02T01:01:49.957Z,87.50
2017-05-02T01:04:18.841Z,87.80
2017-05-02T01:06:47.772Z,87.70
2017-05-02T01:09:17.406Z,87.60
2017-05-02T01:11:46.297Z,88.20
2017-05-02T01:14:15.288Z,87.90
2017-05-02T01:16:44.181Z,87.60
2017-05-02T01:19:13.138Z,87.70
2017-05-02T01:21:42.898Z,88.20
2017-05-02T01:24:11.802Z,88.10
2017-05-02T01:26:40.693Z,87.90
2017-05-02T01:29:09.978Z,88.10
2017-05-02T01:31:38.883Z,88.10
2017-05-02T01:34:07.778Z,88.20
2017-05-02T01:36:36.704Z,88.20
2017-05-02T01:39:06.329Z,88.70
2017-05-02T01:41:35.218Z,88.70
2017-05-02T01:44:04.229Z,88.90
2017-05-02T01:46:33.122Z,88.70
2017-05-02T01:49:02.012Z,88.00
2017-05-02T01:51:30.930Z,88.00
2017-05-02T01:53:59.821Z,88.70
2017-05-02T01:56:28.717Z,88.70
2017-05-02T01:58:57.652Z,88.60
2017-05-02T02:01:27.277Z,88.80
2017-05-02T02:03:56.164Z,88.30
2017-05-02T02:06:25.384Z,88.20
2017-05-02T02:08:54.274Z,88.40
2017-05-02T02:11:23.166Z,89.30
2017-05-02T02:13:52.097Z,88.90
2017-05-02T02:16:21.742Z,89.10
2017-05-02T02:18:50.625Z,88.70
2017-05-02T02:21:19.562Z,88.60
2017-05-02T02:23:48.445Z,88.50
2017-05-02T02:26:17.331Z,88.60
2017-05-02T02:28:46.350Z,88.90
2017-05-02T02:31:15.237Z,89.40
2017-05-02T02:33:44.117Z,89.90
2017-05-02T02:36:13.036Z,89.50
2017-05-02T02:38:42.680Z,89.80
2017-05-02T02:41:11.569Z,89.20
2017-05-02T02:43:40.502Z,88.80
2017-05-02T02:46:09.402Z,89.00
2017-05-02T02:48:38.289Z,89.20
2017-05-02T02:51:07.212Z,89.00
2017-05-02T02:53:36.845Z,88.60
2017-05-02T02:56:05.729Z,89.20
2017-05-02T02:58:34.963Z,88.90
2017-05-02T03:01:03.844Z,88.80
2017-05-02T03:03:32.734Z,89.20
2017-05-02T03:06:01.933Z,89.40
2017-05-02T03:08:30.821Z,89.20
2017-05-02T03:10:59.709Z,89.30
2017-05-02T03:13:28.692Z,89.60
2017-05-02T03:15:57.574Z,89.20
2017-05-02T03:18:26.474Z,89.30
2017-05-02T03:20:55.490Z,89.20
2017-05-02T03:23:24.379Z,89.20
2017-05-02T03:25:53.377Z,89.20
2017-05-02T03:28:22.392Z,88.90
2017-05-02T03:30:51.282Z,88.70
2017-05-02T03:33:20.170Z,88.90
2017-05-02T03:35:49.102Z,89.10
2017-05-02T03:38:17.998Z,88.70
2017-05-02T03:40:46.885Z,88.70
2017-05-02T03:43:16.117Z,88.50
2017-05-02T03:45:45.009Z,88.30
2017-05-02T03:48:13.899Z,87.80
2017-05-02T03:50:43.041Z,87.20
2017-05-02T03:53:12.697Z,87.50
2017-05-02T03:55:41.602Z,87.60
2017-05-02T03:58:10.533Z,87.70
2017-05-02T04:00:40.179Z,88.20
2017-05-02T04:03:09.068Z,88.60
2017-05-02T04:05:38.179Z,89.20
2017-05-02T04:08:07.069Z,88.40
2017-05-02T04:10:35.952Z,89.00
2017-05-02T04:13:04.871Z,90.20
2017-05-02T04:15:33.756Z,90.30
2017-05-02T04:18:02.640Z,90.30
2017-05-02T04:20:31.568Z,90.30
2017-05-02T04:23:01.193Z,90.30
2017-05-02T04:25:30.818Z,90.30
2017-05-02T04:28:00.168Z,89.60
2017-05-02T04:30:29.065Z,89.70
2017-05-02T04:32:57.960Z,90.30
2017-05-02T04:35:26.890Z,89.40
2017-05-02T04:37:55.794Z,90.10
2017-05-02T04:40:24.677Z,90.00
2017-05-02T04:42:53.811Z,90.00
2017-05-02T04:45:22.728Z,89.90
2017-05-02T04:47:52.374Z,89.70
2017-05-02T04:50:21.600Z,89.10
2017-05-02T04:52:50.493Z,88.70
2017-05-02T04:55:19.379Z,88.60
2017-05-02T04:57:48.297Z,88.70
2017-05-02T05:00:17.181Z,88.50
2017-05-02T05:02:46.352Z,88.70
2017-05-02T05:05:15.242Z,88.50
2017-05-02T05:07:44.134Z,88.40
2017-05-02T05:10:13.053Z,88.00
2017-05-02T05:12:41.940Z,87.90
2017-05-02T05:15:10.829Z,88.00
2017-05-02T05:17:39.744Z,88.00
2017-05-02T05:20:09.370Z,87.60
2017-05-02T05:22:38.266Z,88.10
2017-05-02T05:25:07.193Z,88.30
2017-05-02T05:27:36.077Z,88.80
2017-05-02T05:30:04.965Z,87.90
2017-05-02T05:32:33.953Z,87.40
2017-05-02T05:35:02.832Z,86.70
2017-05-02T05:37:31.722Z,86.70
2017-05-02T05:40:00.649Z,86.40
2017-05-02T05:42:29.536Z,85.80
2017-05-02T05:44:58.477Z,85.30
2017-05-02T05:47:28.512Z,85.60
2017-05-02T05:49:57.402Z,85.20
2017-05-02T05:52:26.285Z,85.70
2017-05-02T05:54:55.206Z,84.40
2017-05-02T05:57:24.097Z,84.20
2017-05-02T05:59:52.985Z,83.80
2017-05-02T06:02:22.120Z,82.60
2017-05-02T06:04:51.012Z,82.10
2017-05-02T06:07:19.889Z,82.00
2017-05-02T06:09:49.053Z,82.70
2017-05-02T06:12:17.937Z,83.30
2017-05-02T06:14:46.837Z,84.20
2017-05-02T06:17:15.846Z,82.30
2017-05-02T06:19:44.828Z,82.40
2017-05-02T06:22:13.713Z,81.90
2017-05-02T06:24:42.721Z,81.50
2017-05-02T06:27:11.608Z,80.40
2017-05-02T06:29:40.497Z,79.20
2017-05-02T06:32:09.694Z,78.40
2017-05-02T06:34:38.580Z,78.00
2017-05-02T06:37:07.473Z,78.60
2017-05-02T06:39:36.409Z,77.00
2017-05-02T06:42:06.034Z,77.80
2017-05-02T06:44:34.926Z,78.20
2017-05-02T06:47:04.868Z,75.80
2017-05-02T06:49:33.760Z,76.80
2017-05-02T06:52:02.646Z,76.60
2017-05-02T06:54:31.660Z,76.50
2017-05-02T06:57:00.544Z,76.40
2017-05-02T06:59:29.436Z,76.00
2017-05-02T07:01:58.365Z,75.50
2017-05-02T07:04:27.257Z,75.50
2017-05-02T07:06:56.155Z,74.20
2017-05-02T07:09:25.075Z,74.80
2017-05-02T07:11:53.960Z,73.50
2017-05-02T07:14:22.849Z,72.00
2017-05-02T07:16:51.856Z,72.50
2017-05-02T07:19:20.741Z,72.30
2017-05-02T07:21:49.635Z,72.10
2017-05-02T07:24:18.924Z,73.30
2017-05-02T07:26:47.812Z,74.00
2017-05-02T07:29:16.704Z,73.00
2017-05-02T07:31:45.629Z,71.60
2017-05-02T07:34:14.512Z,73.60
2017-05-02T07:36:43.409Z,70.60
2017-05-02T07:39:12.601Z,72.00
2017-05-02T07:41:41.494Z,71.50
2017-05-02T07:44:10.433Z,69.90
2017-05-02T07:46:40.405Z,68.10
2017-05-02T07:49:09.285Z,68.80
2017-05-02T07:51:38.176Z,68.40
2017-05-02T07:54:07.085Z,67.80
2017-05-02T07:56:35.978Z,67.20
2017-05-02T07:59:04.865Z,65.70
2017-05-02T08:01:33.802Z,67.50
2017-05-02T08:04:03.425Z,66.60
2017-05-02T08:06:32.309Z,63.20
2017-05-02T08:09:02.049Z,62.40
2017-05-02T08:11:30.926Z,62.20
2017-05-02T08:13:59.806Z,60.50
2017-05-02T08:16:29.641Z,60.30
2017-05-02T08:18:58.521Z,57.40
2017-05-02T08:21:27.396Z,60.10
2017-05-02T08:23:57.141Z,59.00
2017-05-02T08:26:26.023Z,56.40
2017-05-02T08:28:54.897Z,58.70
2017-05-02T08:31:23.936Z,54.50
2017-05-02T08:33:52.814Z,53.00
2017-05-02T08:36:21.680Z,54.20
2017-05-02T08:38:51.919Z,49.20
2017-05-02T08:41:20.798Z,51.00
2017-05-02T08:43:49.672Z,51.50
2017-05-02T08:46:18.588Z,53.60
2017-05-02T08:48:47.461Z,49.90
2017-05-02T08:51:16.339Z,47.70
2017-05-02T08:53:45.991Z,52.30
2017-05-02T08:56:14.865Z,53.30
2017-05-02T08:58:43.738Z,50.10
2017-05-02T09:01:12.739Z,53.50
2017-05-02T09:03:41.615Z,48.90
2017-05-02T09:06:10.492Z,49.20
2017-05-02T09:08:40.149Z,51.80
2017-05-02T09:11:09.029Z,47.20
2017-05-02T09:13:37.911Z,47.60
2017-05-02T09:16:06.822Z,43.60
2017-05-02T09:18:35.693Z,44.40
2017-05-02T09:21:04.564Z,45.80
2017-05-02T09:23:33.810Z,44.40
2017-05-02T09:26:02.701Z,44.80
2017-05-02T09:28:31.578Z,38.30
2017-05-02T09:31:00.507Z,41.10
2017-05-02T09:33:29.376Z,38.50
2017-05-02T09:35:58.249Z,41.30
2017-05-02T09:38:27.160Z,38.00
2017-05-02T09:40:56.038Z,38.50
2017-05-02T09:43:24.917Z,39.00
2017-05-02T09:45:53.926Z,39.20
2017-05-02T09:48:22.820Z,40.40
2017-05-02T09:50:51.693Z,40.60
2017-05-02T09:53:20.885Z,35.20
2017-05-02T09:55:49.755Z,35.10
2017-05-02T09:58:18.629Z,35.50
2017-05-02T10:00:48.281Z,35.60
2017-05-02T10:03:17.159Z,34.80
2017-05-02T10:05:46.029Z,35.10
2017-05-02T10:08:15.039Z,36.20
2017-05-02T10:10:43.909Z,40.30
2017-05-02T10:13:13.529Z,37.40
2017-05-02T10:15:42.537Z,37.50
2017-05-02T10:18:11.414Z,35.90
2017-05-02T10:20:40.295Z,37.60
2017-05-02T10:23:10.034Z,37.90
2017-05-02T10:25:38.917Z,32.90
2017-05-02T10:28:07.797Z,33.40
2017-05-02T10:30:36.797Z,33.40
2017-05-02T10:33:05.668Z,36.50
2017-05-02T10:35:35.280Z,34.20
2017-05-02T10:38:04.375Z,34.50
2017-05-02T10:40:33.257Z,34.50
2017-05-02T10:43:02.869Z,32.40
2017-05-02T10:45:32.520Z,34.70
2017-05-02T10:48:01.398Z,36.00
2017-05-02T10:50:30.269Z,36.10
2017-05-02T10:52:59.273Z,34.30
2017-05-02T10:55:28.145Z,34.50
2017-05-02T10:57:57.762Z,35.90
2017-05-02T11:00:26.797Z,34.40
2017-05-02T11:02:55.672Z,35.30
2017-05-02T11:05:24.544Z,35.90
2017-05-02T11:07:53.466Z,36.70
2017-05-02T11:10:22.335Z,37.10
2017-05-02T11:12:51.207Z,34.10
2017-05-02T11:15:20.105Z,35.00
2017-05-02T11:17:48.980Z,36.00
2017-05-02T11:20:17.901Z,35.80
2017-05-02T11:22:46.785Z,34.20
2017-05-02T11:25:15.845Z,37.80
2017-05-02T11:27:45.577Z,34.80
2017-05-02T11:30:14.447Z,34.20
2017-05-02T11:32:44.066Z,33.50
2017-05-02T11:35:12.981Z,33.60
2017-05-02T11:37:41.860Z,36.00
2017-05-02T11:40:10.729Z,32.00
2017-05-02T11:42:40.389Z,32.50
2017-05-02T11:45:09.256Z,30.20
2017-05-02T11:47:38.133Z,34.60
2017-05-02T11:50:07.349Z,32.70
2017-05-02T11:52:36.224Z,31.30
2017-05-02T11:55:05.101Z,32.60
2017-05-02T11:57:34.015Z,27.90
2017-05-02T12:00:02.926Z,31.30
2017-05-02T12:02:31.812Z,30.00
2017-05-02T12:05:00.685Z,29.30
2017-05-02T12:07:29.692Z,29.70
2017-05-02T12:09:58.571Z,29.20
2017-05-02T12:12:27.441Z,28.80
2017-05-02T12:14:56.442Z,30.90
2017-05-02T12:17:25.312Z,30.90
2017-05-02T12:19:54.933Z,27.60
2017-05-02T12:22:23.939Z,27.10
2017-05-02T12:24:52.808Z,28.20
2017-05-02T12:27:22.501Z,28.40
2017-05-02T12:29:51.420Z,30.00
2017-05-02T12:32:20.292Z,30.30
2017-05-02T12:34:50.843Z,31.30
2017-05-02T12:37:20.065Z,29.30
2017-05-02T12:39:48.941Z,29.20
2017-05-02T12:42:17.818Z,27.90
2017-05-02T12:44:47.045Z,26.00
2017-05-02T12:47:15.932Z,23.30
2017-05-02T12:49:44.818Z,19.90
2017-05-02T12:52:14.014Z,17.90
2017-05-02T12:57:11.765Z,17.20
2017-05-02T12:59:41.707Z,19.90
2017-05-02T13:02:10.694Z,20.70
2017-05-02T13:04:39.572Z,19.60
2017-05-02T13:07:08.484Z,19.60
2017-05-02T13:09:37.358Z,16.00
2017-05-02T13:12:06.228Z,15.90
2017-05-02T13:14:35.969Z,17.00
2017-05-02T13:17:04.845Z,15.80
2017-05-02T13:19:33.715Z,16.50
2017-05-02T13:22:03.375Z,15.30
2017-05-02T13:24:32.256Z,15.60
2017-05-02T13:27:01.125Z,15.40
2017-05-02T13:29:30.040Z,17.00
2017-05-02T13:31:58.917Z,19.50
2017-05-02T13:34:27.800Z,21.70
2017-05-02T13:36:56.822Z,23.30
2017-05-02T13:39:25.698Z,21.30
2017-05-02T13:41:54.578Z,18.70
2017-05-02T13:44:23.790Z,17.30
2017-05-02T13:46:52.661Z,16.50
2017-05-02T13:49:21.566Z,16.40
2017-05-02T13:51:50.593Z,15.80
2017-05-02T13:54:19.469Z,18.30
2017-05-02T13:56:48.354Z,18.00
2017-05-02T13:59:17.465Z,19.60
2017-05-02T14:01:46.365Z,22.20
2017-05-02T14:04:15.238Z,22.20
2017-05-02T14:06:44.161Z,24.40
2017-05-02T14:09:13.033Z,23.00
2017-05-02T14:11:41.908Z,22.30
2017-05-02T14:14:11.198Z,21.10
2017-05-02T14:16:40.073Z,22.40
2017-05-02T14:19:08.949Z,23.60
2017-05-02T14:21:38.700Z,25.10
2017-05-02T14:24:07.581Z,25.80
2017-05-02T14:26:36.473Z,27.10
2017-05-02T14:29:05.476Z,29.50
2017-05-02T14:31:34.360Z,29.10
2017-05-02T14:34:03.232Z,30.50
2017-05-02T14:36:32.345Z,28.90
2017-05-02T14:39:01.216Z,27.80
2017-05-02T14:41:30.096Z,27.70
2017-05-02T14:43:59.010Z,27.80
2017-05-02T14:46:27.886Z,28.90
2017-05-02T14:48:56.766Z,30.30
2017-05-02T14:51:26.542Z,31.50
2017-05-02T14:53:55.414Z,30.10
2017-05-02T14:56:24.299Z,30.30
2017-05-02T14:58:53.221Z,32.40
2017-05-02T15:01:22.093Z,32.80
2017-05-02T15:03:50.975Z,33.70
2017-05-02T15:06:20.154Z,33.30
2017-05-02T15:08:49.029Z,34.70
2017-05-02T15:11:17.905Z,34.80
2017-05-02T15:13:47.654Z,34.00
2017-05-02T15:16:16.529Z,34.90
2017-05-02T15:18:45.411Z,34.40
2017-05-02T15:21:14.326Z,34.40
2017-05-02T15:23:43.198Z,34.00
2017-05-02T15:26:12.097Z,35.10
2017-05-02T15:28:41.010Z,36.50
2017-05-02T15:31:09.893Z,34.70
2017-05-02T15:33:38.773Z,35.80
2017-05-02T15:36:07.693Z,37.20
2017-05-02T15:38:37.477Z,35.10
2017-05-02T15:41:06.509Z,36.40
2017-05-02T15:43:35.866Z,36.50
2017-05-02T15:46:04.746Z,37.30
2017-05-02T15:48:33.630Z,38.30
2017-05-02T15:51:02.545Z,37.00
2017-05-02T15:53:31.441Z,36.50
2017-05-02T15:56:00.317Z,38.70
2017-05-02T15:58:29.224Z,37.00
2017-05-02T16:00:58.183Z,37.70
2017-05-02T16:03:27.068Z,39.50
2017-05-02T16:05:56.686Z,37.90
2017-05-02T16:08:25.599Z,37.60
2017-05-02T16:10:54.477Z,37.10
2017-05-02T16:13:23.355Z,36.20
2017-05-02T16:15:52.269Z,37.50
2017-05-02T16:18:21.155Z,37.00
2017-05-02T16:20:50.029Z,38.00
2017-05-02T16:23:18.955Z,38.00
2017-05-02T16:25:47.834Z,37.20
2017-05-02T16:28:16.710Z,38.10
2017-05-02T16:30:45.618Z,37.30
2017-05-02T16:33:14.493Z,40.10
2017-05-02T16:35:43.365Z,38.60
2017-05-02T16:38:12.302Z,37.90
2017-05-02T16:40:41.194Z,37.50
2017-05-02T16:43:10.075Z,38.70
2017-05-02T16:45:38.992Z,38.90
2017-05-02T16:48:07.877Z,38.20
2017-05-02T16:50:36.761Z,39.90
2017-05-02T16:53:05.769Z,39.40
2017-05-02T16:55:34.645Z,39.00
2017-05-02T16:58:03.520Z,39.80
2017-05-02T17:00:32.461Z,40.70
2017-05-02T17:03:02.086Z,40.30
2017-05-02T17:05:30.975Z,41.00
2017-05-02T17:08:00.197Z,41.90
2017-05-02T17:10:29.072Z,40.90
2017-05-02T17:12:57.941Z,41.30
2017-05-02T17:15:27.583Z,41.70
2017-05-02T17:17:56.480Z,41.50
2017-05-02T17:20:25.497Z,42.30
2017-05-02T17:22:54.366Z,41.60
2017-05-02T17:25:23.251Z,41.90
2017-05-02T17:27:52.168Z,43.50
2017-05-02T17:30:21.048Z,44.40
2017-05-02T17:32:49.934Z,45.40
2017-05-02T17:35:18.849Z,46.40
2017-05-02T17:37:47.721Z,46.20
2017-05-02T17:40:16.599Z,46.80
2017-05-02T17:42:45.797Z,48.10
2017-05-02T17:45:14.672Z,48.70
2017-05-02T17:47:43.584Z,48.70
2017-05-02T17:50:12.769Z,49.40
2017-05-02T17:52:41.641Z,50.10
2017-05-02T17:55:10.518Z,49.90
2017-05-02T17:57:40.179Z,50.20
2017-05-02T18:00:09.057Z,50.60
2017-05-02T18:02:37.932Z,51.70
2017-05-02T18:05:06.841Z,52.00
2017-05-02T18:07:35.719Z,52.00
2017-05-02T18:10:04.919Z,52.20
2017-05-02T18:12:33.792Z,53.10
2017-05-02T18:15:03.688Z,53.10
2017-05-02T18:17:33.644Z,53.90
2017-05-02T18:20:02.516Z,54.40
2017-05-02T18:22:31.394Z,54.00
2017-05-02T18:25:01.047Z,53.90
2017-05-02T18:27:29.927Z,55.10
2017-05-02T18:29:58.838Z,55.00
2017-05-02T18:32:27.722Z,55.40
2017-05-02T18:34:56.616Z,55.70
2017-05-02T18:37:25.528Z,54.70
2017-05-02T18:39:54.513Z,56.10
2017-05-02T18:42:23.396Z,56.40
2017-05-02T18:44:52.486Z,56.50
2017-05-02T18:47:21.365Z,56.90
2017-05-02T18:49:50.268Z,57.40
2017-05-02T18:52:19.528Z,56.90
2017-05-02T18:54:48.465Z,57.10
2017-05-02T18:57:17.343Z,56.60
2017-05-02T18:59:46.523Z,56.60
2017-05-02T19:02:15.399Z,56.70
2017-05-02T19:04:44.279Z,56.90
2017-05-02T19:07:13.209Z,56.70
2017-05-02T19:09:42.089Z,56.00
2017-05-02T19:12:10.995Z,56.60
2017-05-02T19:14:40.186Z,57.00
2017-05-02T19:17:09.059Z,57.70
2017-05-02T19:19:38.024Z,57.80
2017-05-02T19:22:07.684Z,57.90
2017-05-02T19:24:37.913Z,57.30
2017-05-02T19:27:06.790Z,57.60
2017-05-02T19:29:35.662Z,58.70
2017-05-02T19:32:04.560Z,59.00
2017-05-02T19:34:33.438Z,58.30
2017-05-02T19:37:02.328Z,58.30
2017-05-02T19:39:31.262Z,58.60
2017-05-02T19:42:00.169Z,59.00
2017-05-02T19:44:29.044Z,58.90
2017-05-02T19:46:58.029Z,58.50
2017-05-02T19:49:26.917Z,59.20
2017-05-02T19:51:55.796Z,59.30
2017-05-02T19:54:24.821Z,59.30
2017-05-02T19:56:53.723Z,59.80
2017-05-02T19:59:22.625Z,59.70
2017-05-02T20:01:52.296Z,59.40
2017-05-02T20:04:21.194Z,59.70
2017-05-02T20:06:50.093Z,59.90
2017-05-02T20:09:19.178Z,60.00
2017-05-02T20:11:48.059Z,59.60
2017-05-02T20:14:16.949Z,59.70
2017-05-02T20:16:45.869Z,59.70
2017-05-02T20:19:14.745Z,59.50
2017-05-02T20:21:43.870Z,60.00
2017-05-02T20:24:13.490Z,61.10
2017-05-02T20:26:43.539Z,60.50
2017-05-02T20:29:12.417Z,60.60
2017-05-02T20:31:41.289Z,60.70
2017-05-02T20:34:10.256Z,61.10
2017-05-02T20:36:39.872Z,61.00
2017-05-02T20:39:09.492Z,61.40
2017-05-02T20:41:38.723Z,61.80
2017-05-02T20:44:07.602Z,62.10
2017-05-02T20:46:36.477Z,62.60
2017-05-02T20:49:05.742Z,63.00
2017-05-02T20:51:34.616Z,62.10
2017-05-02T20:54:03.517Z,61.90
2017-05-02T20:56:32.416Z,61.60
2017-05-02T20:59:01.298Z,62.30
2017-05-02T21:01:30.316Z,62.30
2017-05-02T21:03:59.931Z,61.90
2017-05-02T21:06:29.545Z,62.20
2017-05-02T21:08:58.453Z,62.00
2017-05-02T21:11:27.340Z,62.30
2017-05-02T21:13:56.263Z,62.20
2017-05-02T21:16:25.129Z,62.60
2017-05-02T21:18:54.006Z,62.90
2017-05-02T21:21:23.053Z,63.00
2017-05-02T21:23:51.925Z,63.50
2017-05-02T21:26:20.801Z,63.50
2017-05-02T21:28:49.708Z,63.40
2017-05-02T21:31:18.714Z,64.10
2017-05-02T21:33:47.606Z,64.00
2017-05-02T21:36:16.477Z,64.00
2017-05-02T21:38:46.078Z,63.20
2017-05-02T21:41:14.956Z,64.20
2017-05-02T21:43:43.836Z,64.80
2017-05-02T21:46:12.747Z,64.30
2017-05-02T21:48:41.629Z,64.30
2017-05-02T21:51:10.508Z,64.70
2017-05-02T21:53:39.508Z,65.10
2017-05-02T21:56:08.389Z,65.90
2017-05-02T21:58:37.266Z,65.90
2017-05-02T22:01:06.916Z,66.20
2017-05-02T22:03:35.796Z,66.30
2017-05-02T22:06:04.673Z,66.60
2017-05-02T22:08:33.884Z,66.40
2017-05-02T22:11:02.771Z,66.50
2017-05-02T22:13:31.645Z,66.50
2017-05-02T22:16:00.645Z,66.50
2017-05-02T22:18:29.524Z,66.30
2017-05-02T22:20:58.401Z,66.80
2017-05-02T22:23:28.325Z,66.80
2017-05-02T22:25:57.204Z,67.00
2017-05-02T22:28:26.817Z,67.40
2017-05-02T22:30:56.560Z,67.50
2017-05-02T22:33:25.428Z,67.40
2017-05-02T22:35:54.308Z,67.80
2017-05-02T22:38:24.360Z,67.00
2017-05-02T22:40:53.229Z,67.80
2017-05-02T22:43:22.102Z,67.50
2017-05-02T22:45:52.053Z,68.30
2017-05-02T22:48:20.935Z,68.40
2017-05-02T22:50:49.814Z,68.40
2017-05-02T22:53:18.814Z,68.50
2017-05-02T22:55:47.685Z,68.10
2017-05-02T22:58:17.310Z,68.60
2017-05-02T23:00:46.421Z,69.20
2017-05-02T23:03:15.309Z,69.50
2017-05-02T23:05:44.185Z,69.40
2017-05-02T23:08:13.088Z,69.40
2017-05-02T23:10:41.964Z,70.10
2017-05-02T23:13:10.880Z,70.70
2017-05-02T23:15:39.752Z,70.30
2017-05-02T23:18:08.629Z,71.50
2017-05-02T23:20:38.289Z,71.70
2017-05-02T23:23:07.165Z,71.80
2017-05-02T23:25:36.042Z,72.20
2017-05-02T23:28:04.965Z,72.40
2017-05-02T23:30:33.845Z,73.00
2017-05-02T23:33:02.718Z,73.00
2017-05-02T23:35:31.848Z,73.50
2017-05-02T23:38:00.729Z,73.80
2017-05-02T23:40:29.614Z,74.10
2017-05-02T23:42:58.527Z,74.10
2017-05-02T23:45:27.404Z,74.50
2017-05-02T23:47:56.281Z,75.00
2017-05-02T23:50:25.185Z,75.40
2017-05-02T23:52:54.362Z,75.30
2017-05-02T23:55:23.232Z,75.30
2017-05-02T23:57:52.105Z,75.80
